Airfield :
LOGIN :

Register | Disclaimer

   EN    FR    IT 

 










Legend :    VFR   Marginal VFR   IFR   Intensive IFR   Very Intensive IFR
Visi :
Ceiling :
>= 8 km
>= 3000ft
5 to 8 km
1000 to 3000 ft
1500m to 5 km
500 to 1000 ft
800 to 1500m
200 to 500 ft
< 800m
< 200 ft
Symbols :   Thunderstorms  Fog  Heavy snow  Heavy precipitations  Wind > 20 kt
SIGMETs :     Misc.  Thunderstorms  Icing  Turbulence  Mountain Waves  Volcanic Ashes






- Airport Elevation : 392 ft
- IATA code : CDG


LFPG - Paris-Aeroport Charles De Gaulle

CURRENT METAR :
  • 160730Z 18005KT 9000 NSC M00/M05 Q1028 NOSIG

EXPIRED METARs :
  • 160700Z 22004KT 9000 FEW030 BKN150 M01/M04 Q1028 NOSIG
  • 160630Z 22003KT 9000 SCT030 BKN150 M01/M04 Q1028 NOSIG
  • 160600Z 23003KT 9000 SCT029 BKN200 M01/M03 Q1029 NOSIG
  • 160530Z 20003KT 9000 SCT028 BKN200 M01/M03 Q1028 NOSIG
  • 160500Z 23004KT 9999 BKN030 BKN210 M00/M03 Q1029 NOSIG

TAF TAF LFPG
Valid from the 16 at 06:00 until the 17 at 12:00 UTC


160500Z 1606/1712 20004KT 9999 BKN030 TX05/1712Z TNM02/1606Z
TEMPO 1610/1614 4000 -SN BKN005 BKN010
PROB40
TEMPO 1612/1614 1500 SN BKN004
TEMPO 1614/1616 18015G25KT
TEMPO 1615/1618 3000 SNRA BKN005
PROB40
TEMPO 1615/1617 FZRA
BECMG 1622/1624 BKN008
ATIS : +33 1 48 62 10 92



MET'MAP, your aeronautical weather chart ! - Copyright ORBIFLY December 2007 - Disclaimer

ORBIFLY MET'MAP TEAM :

Programming & Development : Alexandra Zaïnal
Concept & original design : Baudouin d'Aumeries
Assistance for programming : Marc-Olivier Méhu
Technical & hardware support : Manuel Goepfert

Contact : metmap@orbifly.com




SOURCES & CREDITS :

   NOAA